Terminal Aerodrome Forecast
Issued by NWS Charleston, WV

Current Version | Previous Version | Text Only | Print | Product List | Glossary Off
Versions: 1 2 3 4 5 6 7 8 9 10 11 12 13 14 15 16 17 18 19 20

504
FTUS41 KRLX 050250 AAA
TAFBKW
TAF AMD
KBKW 050250Z 0503/0524 33007KT 6SM -SHSN OVC015
     FM050900 32008KT P6SM BKN015
     FM051300 32007KT P6SM SCT020 BKN250
     FM051800 32007KT P6SM BKN250=

USA.gov is the U.S. government's official web portal to all federal, state and local government web resources and services.